Yamagata Airport

Airport
ICAO code: 
RJSC
IATA Code: 
GAJ
Summary
ICAO Region: 
APAC
Territory: 
Location: 
Higashine, Yamagata Prefecture
Serving: 
Yamagata
Elevation: 
345 ft
Coordinates: 
Aerial View: 
38° 24' 38.282" N, 140° 21' 59.213" E
Metar
Observation
RJSC 250400Z 26011G21KT 220V300 9999 FEW040 SCT050 33/19 Q1005
Station
Yamagata Airport
Date/Time
2022-06-25 04:00:00
Wind direction
260°
Wind speed
11 kts
Lowest cloud amount
few clouds
Temperature
33°C
Dew point
19°C
Humidity
43%
QNH
1005 hPa
Weather condition
n/a

Airport 23 km north of the city of Yamagata, Japan.

Climatology

Humid subtropical climate (Köppen climate classification Cfa).

Runways

Designator Length Width Surface Rops
1/19 1999 46 ASP Yes/Yes
Airport map: 
Aerial View: 

SKYbrary Partners:

Safety knowledge contributed by: